EKSN/CNL METAR and TAF weather

Enter ICAO airport designator
Station Type Date Time Source
EKSN METAR 2018/04/23 10:50 UTC NOAA

EKSN 231050Z 26014KT 9999 SCT022 11/09 Q1004


Station Type Date Time Source
EKSN Decoded METAR 2018/04/23 10:50 UTC NOAA

Sindal Flyveplads, Denmark (EKSN) 57-30N 010-13E 28M
Apr 23, 2018 - 06:50 AM EDT / 2018.04.23 1050 UTC
Wind: from the W (260 degrees) at 16 MPH (14 KT):0
Visibility: greater than 7 mile(s):0
Sky conditions: partly cloudy
Temperature: 51 F (11 C)
Dew Point: 48 F (9 C)
Relative Humidity: 87%
Pressure (altimeter): 29.65 in. Hg (1004 hPa)
ob: EKSN 231050Z 26014KT 9999 SCT022 11/09 Q1004
cycle: 11

Station Type Date Time Source
EKSN TAF UTC NOAA

Error!


Example: see airport list